createdAt,value
2023-01-08T00:01:21.157Z,16.68
2023-01-08T00:03:50.994Z,16.67
2023-01-08T00:06:21.945Z,16.67
2023-01-08T00:08:49.292Z,16.66
2023-01-08T00:11:17.631Z,16.66
2023-01-08T00:13:45.038Z,16.66
2023-01-08T00:16:16.502Z,16.66
2023-01-08T00:18:45.298Z,16.69
2023-01-08T00:21:13.363Z,16.68
2023-01-08T00:23:40.777Z,16.69
2023-01-08T00:26:10.873Z,16.69
2023-01-08T00:28:39.045Z,16.70
2023-01-08T00:31:09.377Z,16.70
2023-01-08T00:33:37.736Z,16.69
2023-01-08T00:36:14.965Z,16.69
2023-01-08T00:38:43.119Z,16.69
2023-01-08T00:41:13.268Z,16.69
2023-01-08T00:43:40.996Z,16.69
2023-01-08T00:46:09.090Z,16.69
2023-01-08T00:48:38.714Z,16.70
2023-01-08T00:51:08.561Z,16.69
2023-01-08T00:53:37.871Z,16.69
2023-01-08T00:56:10.113Z,16.69
2023-01-08T00:58:37.669Z,16.70
2023-01-08T01:01:13.746Z,16.70
2023-01-08T01:03:42.009Z,16.69
2023-01-08T01:06:11.809Z,16.68
2023-01-08T01:08:39.235Z,16.69
2023-01-08T01:11:08.899Z,16.68
2023-01-08T01:13:36.223Z,16.69
2023-01-08T01:16:04.553Z,16.69
2023-01-08T01:18:32.001Z,16.68
2023-01-08T01:20:59.654Z,16.67
2023-01-08T01:23:26.999Z,16.67
2023-01-08T01:25:54.659Z,16.67
2023-01-08T01:28:21.970Z,16.67
2023-01-08T01:30:56.958Z,16.67
2023-01-08T01:33:24.380Z,16.66
2023-01-08T01:36:02.622Z,16.66
2023-01-08T01:38:30.608Z,16.65
2023-01-08T01:40:58.746Z,16.65
2023-01-08T01:43:37.922Z,16.65
2023-01-08T01:46:19.116Z,16.65
2023-01-08T01:48:49.850Z,16.64
2023-01-08T01:51:19.108Z,16.63
2023-01-08T01:53:47.168Z,16.64
2023-01-08T01:56:15.746Z,16.64
2023-01-08T01:58:42.985Z,16.63
2023-01-08T02:01:10.927Z,16.63
2023-01-08T02:03:40.244Z,16.63
2023-01-08T02:06:26.935Z,16.63
2023-01-08T02:09:02.596Z,16.63
2023-01-08T02:12:19.378Z,16.62
2023-01-08T02:14:54.990Z,16.62
2023-01-08T02:17:49.435Z,16.61
2023-01-08T02:20:42.667Z,16.63
2023-01-08T02:23:38.078Z,16.61
2023-01-08T02:26:24.905Z,16.60
2023-01-08T02:28:58.975Z,16.61
2023-01-08T02:31:28.899Z,16.60
2023-01-08T02:33:56.787Z,16.59
2023-01-08T02:36:32.425Z,16.60
2023-01-08T02:39:13.944Z,16.59
2023-01-08T02:42:03.071Z,16.59
2023-01-08T02:44:56.969Z,16.59
2023-01-08T02:47:30.826Z,16.58
2023-01-08T02:50:13.569Z,16.58
2023-01-08T02:52:50.165Z,16.57
2023-01-08T02:55:20.925Z,16.59
2023-01-08T02:57:49.245Z,16.57
2023-01-08T03:00:17.018Z,16.57
2023-01-08T03:02:44.981Z,16.56
2023-01-08T03:05:24.283Z,16.57
2023-01-08T03:07:51.994Z,16.56
2023-01-08T03:10:24.894Z,16.56
2023-01-08T03:12:58.645Z,16.56
2023-01-08T03:15:33.008Z,16.55
2023-01-08T03:18:09.169Z,16.55
2023-01-08T03:20:38.827Z,16.54
2023-01-08T03:23:10.321Z,16.54
2023-01-08T03:25:41.618Z,16.53
2023-01-08T03:28:15.343Z,16.53
2023-01-08T03:30:44.727Z,16.53
2023-01-08T03:33:14.812Z,16.53
2023-01-08T03:35:45.589Z,16.53
2023-01-08T03:38:17.356Z,16.52
2023-01-08T03:40:51.614Z,16.52
2023-01-08T03:43:19.094Z,16.51
2023-01-08T03:45:56.087Z,16.51
2023-01-08T03:48:25.069Z,16.51
2023-01-08T03:50:52.751Z,16.50
2023-01-08T03:53:20.594Z,16.49
2023-01-08T03:55:48.639Z,16.49
2023-01-08T03:58:16.332Z,16.49
2023-01-08T04:00:43.931Z,16.49
2023-01-08T04:03:11.304Z,16.48
2023-01-08T04:05:38.846Z,16.48
2023-01-08T04:08:06.504Z,16.48
2023-01-08T04:10:34.000Z,16.47
2023-01-08T04:13:01.522Z,16.47
2023-01-08T04:15:29.329Z,16.48
2023-01-08T04:17:57.388Z,16.47
2023-01-08T04:20:25.019Z,16.45
2023-01-08T04:22:52.390Z,16.45
2023-01-08T04:25:19.983Z,16.44
2023-01-08T04:27:48.229Z,16.44
2023-01-08T04:30:15.887Z,16.43
2023-01-08T04:32:43.516Z,16.43
2023-01-08T04:35:11.090Z,16.44
2023-01-08T04:37:38.673Z,16.43
2023-01-08T04:40:06.728Z,16.42
2023-01-08T04:42:34.081Z,16.42
2023-01-08T04:45:01.650Z,16.42
2023-01-08T04:47:28.988Z,16.41
2023-01-08T04:49:56.547Z,16.41
2023-01-08T04:52:24.891Z,16.41
2023-01-08T04:54:52.492Z,16.40
2023-01-08T04:57:19.901Z,16.39
2023-01-08T04:59:47.483Z,16.39
2023-01-08T05:02:15.019Z,16.40
2023-01-08T05:04:42.688Z,16.39
2023-01-08T05:07:10.135Z,16.40
2023-01-08T05:09:37.742Z,16.39
2023-01-08T05:12:05.347Z,16.38
2023-01-08T05:14:32.900Z,16.38
2023-01-08T05:17:00.393Z,16.37
2023-01-08T05:19:27.984Z,16.37
2023-01-08T05:21:55.311Z,16.37
2023-01-08T05:24:22.898Z,16.37
2023-01-08T05:26:50.343Z,16.37
2023-01-08T05:29:18.115Z,16.37
2023-01-08T05:31:45.806Z,16.35
2023-01-08T05:34:13.744Z,16.35
2023-01-08T05:36:41.384Z,16.35
2023-01-08T05:39:09.247Z,16.34
2023-01-08T05:41:36.933Z,16.35
2023-01-08T05:44:04.759Z,16.34
2023-01-08T05:46:32.149Z,16.34
2023-01-08T05:49:00.628Z,16.33
2023-01-08T05:51:28.042Z,16.32
2023-01-08T05:53:55.689Z,16.33
2023-01-08T05:56:23.275Z,16.33
2023-01-08T05:58:54.131Z,16.32
2023-01-08T06:01:21.645Z,16.31
2023-01-08T06:03:49.346Z,16.31
2023-01-08T06:06:16.784Z,16.31
2023-01-08T06:08:44.453Z,16.32
2023-01-08T06:11:12.244Z,16.31
2023-01-08T06:13:43.451Z,16.30
2023-01-08T06:16:11.710Z,16.30
2023-01-08T06:18:39.697Z,16.29
2023-01-08T06:21:07.257Z,16.30
2023-01-08T06:23:35.021Z,16.30
2023-01-08T06:26:04.184Z,16.29
2023-01-08T06:28:32.771Z,16.28
2023-01-08T06:31:01.583Z,16.28
2023-01-08T06:33:30.527Z,16.27
2023-01-08T06:36:02.650Z,16.27
2023-01-08T06:38:34.810Z,16.27
2023-01-08T06:41:08.648Z,16.26
2023-01-08T06:43:37.804Z,16.27
2023-01-08T06:46:06.245Z,16.25
2023-01-08T06:48:33.945Z,16.25
2023-01-08T06:51:02.822Z,16.25
2023-01-08T06:53:31.102Z,16.25
2023-01-08T06:55:58.868Z,16.22
2023-01-08T06:58:28.303Z,16.22
2023-01-08T07:00:56.336Z,16.20
2023-01-08T07:03:24.030Z,16.20
2023-01-08T07:05:51.446Z,16.21
2023-01-08T07:08:19.119Z,16.21
2023-01-08T07:10:46.548Z,16.20
2023-01-08T07:13:14.476Z,16.22
2023-01-08T07:15:42.912Z,16.21
2023-01-08T07:18:12.763Z,16.21
2023-01-08T07:20:40.375Z,16.21
2023-01-08T07:23:11.443Z,16.21
2023-01-08T07:25:38.806Z,16.20
2023-01-08T07:28:10.640Z,16.20
2023-01-08T07:30:38.511Z,16.21
2023-01-08T07:33:06.864Z,16.21
2023-01-08T07:35:35.625Z,16.20
2023-01-08T07:38:03.218Z,16.20
2023-01-08T07:40:31.757Z,16.21
2023-01-08T07:43:04.369Z,16.20
2023-01-08T07:45:32.593Z,16.19
2023-01-08T07:48:00.857Z,16.19
2023-01-08T07:50:28.773Z,16.21
2023-01-08T07:52:58.631Z,16.20
2023-01-08T07:55:27.087Z,16.21
2023-01-08T07:57:55.330Z,16.22
2023-01-08T08:00:22.735Z,16.21
2023-01-08T08:02:51.669Z,16.23
2023-01-08T08:05:19.045Z,16.22
2023-01-08T08:07:47.691Z,16.23
2023-01-08T08:10:15.863Z,16.24
2023-01-08T08:12:45.128Z,16.25
2023-01-08T08:15:12.451Z,16.27
2023-01-08T08:17:45.896Z,16.28
2023-01-08T08:20:13.201Z,16.30
2023-01-08T08:22:41.035Z,16.33
2023-01-08T08:25:09.058Z,16.33
2023-01-08T08:27:37.049Z,16.34
2023-01-08T08:30:04.896Z,16.36
2023-01-08T08:32:33.706Z,16.37
2023-01-08T08:35:02.329Z,16.38
2023-01-08T08:37:30.183Z,16.39
2023-01-08T08:39:57.915Z,16.41
2023-01-08T08:42:26.709Z,16.42
2023-01-08T08:44:54.070Z,16.44
2023-01-08T08:47:21.717Z,16.46
2023-01-08T08:49:49.007Z,16.45
2023-01-08T08:52:16.722Z,16.47
2023-01-08T08:54:44.159Z,16.48
2023-01-08T08:57:12.069Z,16.49
2023-01-08T08:59:39.452Z,16.48
2023-01-08T09:02:07.503Z,16.50
2023-01-08T09:04:35.299Z,16.50
2023-01-08T09:07:03.245Z,16.51
2023-01-08T09:09:30.758Z,16.50
2023-01-08T09:11:58.596Z,16.51
2023-01-08T09:14:25.903Z,16.51
2023-01-08T09:16:54.388Z,16.53
2023-01-08T09:19:22.791Z,16.54
2023-01-08T09:21:51.218Z,16.54
2023-01-08T09:24:19.389Z,16.54
2023-01-08T09:26:47.032Z,16.56
2023-01-08T09:29:14.446Z,16.58
2023-01-08T09:31:42.071Z,16.58
2023-01-08T09:34:09.554Z,16.58
2023-01-08T09:36:38.262Z,16.58
2023-01-08T09:39:05.994Z,16.59
2023-01-08T09:41:42.391Z,16.62
2023-01-08T09:44:20.519Z,16.64
2023-01-08T09:46:49.180Z,16.66
2023-01-08T09:49:25.136Z,16.67
2023-01-08T09:51:52.774Z,16.67
2023-01-08T09:54:24.642Z,16.70
2023-01-08T09:56:52.751Z,16.71
2023-01-08T09:59:21.135Z,16.73
2023-01-08T10:01:49.089Z,16.75
2023-01-08T10:04:20.985Z,16.76
2023-01-08T10:06:57.113Z,16.76
2023-01-08T10:09:28.285Z,16.77
2023-01-08T10:12:00.451Z,16.78
2023-01-08T10:14:39.447Z,16.80
2023-01-08T10:17:27.102Z,16.78
2023-01-08T10:19:54.779Z,16.80
2023-01-08T10:22:25.155Z,16.80
2023-01-08T10:24:52.748Z,16.83
2023-01-08T10:27:23.021Z,16.83
2023-01-08T10:29:52.058Z,16.81
2023-01-08T10:32:34.330Z,16.83
2023-01-08T10:35:06.842Z,16.83
2023-01-08T10:37:42.477Z,16.86
2023-01-08T10:40:24.790Z,16.88
2023-01-08T10:42:54.831Z,16.88
2023-01-08T10:45:25.006Z,16.90
2023-01-08T10:48:06.807Z,16.91
2023-01-08T10:50:35.056Z,16.92
2023-01-08T10:53:21.868Z,16.92
2023-01-08T10:56:01.695Z,16.93
2023-01-08T10:58:30.269Z,16.94
2023-01-08T11:01:25.171Z,16.96
2023-01-08T11:04:04.996Z,16.96
2023-01-08T11:06:37.171Z,16.96
2023-01-08T11:09:21.522Z,16.97
2023-01-08T11:11:49.852Z,16.96
2023-01-08T11:14:29.735Z,16.95
2023-01-08T11:16:58.131Z,16.95
2023-01-08T11:19:29.496Z,16.96
2023-01-08T11:22:06.118Z,16.96
2023-01-08T11:24:36.869Z,16.97
2023-01-08T11:27:28.240Z,16.96
2023-01-08T11:30:06.474Z,16.95
2023-01-08T11:32:40.312Z,16.95
2023-01-08T11:35:21.208Z,16.95
2023-01-08T11:37:54.428Z,16.94
2023-01-08T11:40:31.879Z,16.95
2023-01-08T11:43:17.418Z,16.94
2023-01-08T11:45:56.823Z,16.94
2023-01-08T11:48:26.909Z,16.93
2023-01-08T11:51:20.931Z,16.94
2023-01-08T11:54:16.818Z,16.94
2023-01-08T11:57:30.878Z,16.95
2023-01-08T12:00:23.652Z,16.95
2023-01-08T12:03:02.068Z,16.95
2023-01-08T12:05:42.150Z,16.95
2023-01-08T12:08:28.035Z,16.96
2023-01-08T12:11:20.205Z,16.95
2023-01-08T12:14:25.484Z,16.95
2023-01-08T12:17:02.907Z,16.96
2023-01-08T12:19:34.268Z,16.94
2023-01-08T12:22:12.069Z,16.95
2023-01-08T12:25:11.946Z,16.94
2023-01-08T12:27:59.649Z,16.95
2023-01-08T12:30:51.344Z,16.97
2023-01-08T12:33:37.268Z,16.96
2023-01-08T12:36:18.329Z,16.96
2023-01-08T12:38:55.412Z,16.96
2023-01-08T12:41:25.103Z,16.98
2023-01-08T12:44:10.182Z,16.99
2023-01-08T12:46:43.328Z,16.98
2023-01-08T12:49:21.444Z,16.98
2023-01-08T12:52:05.356Z,16.98
2023-01-08T12:54:56.634Z,17.00
2023-01-08T12:57:31.816Z,17.00
2023-01-08T13:00:36.235Z,16.99
2023-01-08T13:03:06.363Z,17.01
2023-01-08T13:05:36.296Z,17.03
2023-01-08T13:08:21.544Z,17.04
2023-01-08T13:10:55.105Z,17.05
2023-01-08T13:13:27.875Z,17.07
2023-01-08T13:16:19.735Z,17.09
2023-01-08T13:19:01.293Z,17.12
2023-01-08T13:21:36.123Z,17.14
2023-01-08T13:24:24.559Z,17.15
2023-01-08T13:26:52.971Z,17.15
2023-01-08T13:29:26.386Z,17.16
2023-01-08T13:31:54.081Z,17.17
2023-01-08T13:34:39.799Z,17.20
2023-01-08T13:37:11.425Z,17.21
2023-01-08T13:39:44.382Z,17.24
2023-01-08T13:42:13.780Z,17.24
2023-01-08T13:44:47.641Z,17.28
2023-01-08T13:47:32.107Z,17.26
2023-01-08T13:50:04.424Z,17.28
2023-01-08T13:52:32.011Z,17.27
2023-01-08T13:55:03.260Z,17.28
2023-01-08T13:57:41.392Z,17.32
2023-01-08T14:00:17.614Z,17.30
2023-01-08T14:02:50.526Z,17.33
2023-01-08T14:05:23.008Z,17.33
2023-01-08T14:07:50.469Z,17.35
2023-01-08T14:10:19.630Z,17.36
2023-01-08T14:12:48.301Z,17.34
2023-01-08T14:15:25.860Z,17.35
2023-01-08T14:17:54.019Z,17.34
2023-01-08T14:20:32.572Z,17.34
2023-01-08T14:23:01.364Z,17.37
2023-01-08T14:25:29.715Z,17.36
2023-01-08T14:28:03.303Z,17.36
2023-01-08T14:30:31.509Z,17.38
2023-01-08T14:33:00.858Z,17.37
2023-01-08T14:35:33.234Z,17.35
2023-01-08T14:38:02.667Z,17.35
2023-01-08T14:40:43.476Z,17.34
2023-01-08T14:43:17.703Z,17.33
2023-01-08T14:45:49.675Z,17.33
2023-01-08T14:48:40.496Z,17.32
2023-01-08T14:51:11.833Z,17.33
2023-01-08T14:53:46.217Z,17.33
2023-01-08T14:56:24.654Z,17.35
2023-01-08T14:58:54.387Z,17.34
2023-01-08T15:01:27.703Z,17.31
2023-01-08T15:04:17.287Z,17.31
2023-01-08T15:06:46.411Z,17.30
2023-01-08T15:09:34.340Z,17.30
2023-01-08T15:12:07.407Z,17.31
2023-01-08T15:14:36.741Z,17.30
2023-01-08T15:17:20.018Z,17.29
2023-01-08T15:19:51.165Z,17.30
2023-01-08T15:22:21.219Z,17.30
2023-01-08T15:24:58.691Z,17.31
2023-01-08T15:27:27.575Z,17.28
2023-01-08T15:30:00.171Z,17.30
2023-01-08T15:32:32.419Z,17.30
2023-01-08T15:35:00.507Z,17.28
2023-01-08T15:37:28.209Z,17.27
2023-01-08T15:39:55.591Z,17.27
2023-01-08T15:42:48.237Z,17.28
2023-01-08T15:45:22.241Z,17.30
2023-01-08T15:47:49.810Z,17.27
2023-01-08T15:50:17.649Z,17.28
2023-01-08T15:52:45.232Z,17.27
2023-01-08T15:55:20.714Z,17.27
2023-01-08T15:57:48.693Z,17.27
2023-01-08T16:00:18.480Z,17.27
2023-01-08T16:02:48.426Z,17.26
2023-01-08T16:05:17.931Z,17.26
2023-01-08T16:07:46.350Z,17.27
2023-01-08T16:10:17.595Z,17.25
2023-01-08T16:12:45.835Z,17.25
2023-01-08T16:15:15.063Z,17.27
2023-01-08T16:17:43.933Z,17.26
2023-01-08T16:20:13.514Z,17.26
2023-01-08T16:22:41.322Z,17.25
2023-01-08T16:25:09.426Z,17.24
2023-01-08T16:27:38.438Z,17.24
2023-01-08T16:30:08.198Z,17.24
2023-01-08T16:32:36.187Z,17.23
2023-01-08T16:35:04.090Z,17.23
2023-01-08T16:37:32.076Z,17.23
2023-01-08T16:39:59.399Z,17.22
2023-01-08T16:42:27.945Z,17.22
2023-01-08T16:44:55.913Z,17.21
2023-01-08T16:47:23.662Z,17.23
2023-01-08T16:49:51.152Z,17.20
2023-01-08T16:52:19.051Z,17.22
2023-01-08T16:54:47.407Z,17.20
2023-01-08T16:57:15.325Z,17.21
2023-01-08T16:59:42.894Z,17.20
2023-01-08T17:02:10.631Z,17.21
2023-01-08T17:04:38.670Z,17.20
2023-01-08T17:07:06.752Z,17.18
2023-01-08T17:09:34.295Z,17.18
2023-01-08T17:12:02.036Z,17.20
2023-01-08T17:14:29.492Z,17.19
2023-01-08T17:16:57.229Z,17.20
2023-01-08T17:19:24.672Z,17.19
2023-01-08T17:21:52.876Z,17.19
2023-01-08T17:24:23.735Z,17.20
2023-01-08T17:26:51.769Z,17.20
2023-01-08T17:29:19.279Z,17.17
2023-01-08T17:31:47.310Z,17.18
2023-01-08T17:34:14.746Z,17.19
2023-01-08T17:36:42.715Z,17.18
2023-01-08T17:39:11.537Z,17.20
2023-01-08T17:41:58.755Z,17.19
2023-01-08T17:44:26.691Z,17.20
2023-01-08T17:46:55.082Z,17.20
2023-01-08T17:49:23.000Z,17.20
2023-01-08T17:51:51.722Z,17.19
2023-01-08T17:54:19.804Z,17.20
2023-01-08T17:56:48.922Z,17.18
2023-01-08T17:59:18.106Z,17.20
2023-01-08T18:01:46.266Z,17.18
2023-01-08T18:04:14.776Z,17.18
2023-01-08T18:06:44.097Z,17.20
2023-01-08T18:09:12.532Z,17.19
2023-01-08T18:11:41.601Z,17.19
2023-01-08T18:14:13.316Z,17.18
2023-01-08T18:16:45.390Z,17.17
2023-01-08T18:19:14.155Z,17.17
2023-01-08T18:21:42.499Z,17.17
2023-01-08T18:24:11.006Z,17.16
2023-01-08T18:26:38.711Z,17.17
2023-01-08T18:29:06.488Z,17.18
2023-01-08T18:31:34.274Z,17.18
2023-01-08T18:34:03.704Z,17.17
2023-01-08T18:36:31.340Z,17.17
2023-01-08T18:38:58.941Z,17.17
2023-01-08T18:41:45.311Z,17.17
2023-01-08T18:44:12.868Z,17.17
2023-01-08T18:46:41.888Z,17.18
2023-01-08T18:49:09.521Z,17.19
2023-01-08T18:51:37.210Z,17.23
2023-01-08T18:54:04.991Z,17.24
2023-01-08T18:56:35.035Z,17.25
2023-01-08T18:59:04.889Z,17.25
2023-01-08T19:01:34.449Z,17.23
2023-01-08T19:04:02.154Z,17.21
2023-01-08T19:06:29.812Z,17.21
2023-01-08T19:08:58.864Z,17.19
2023-01-08T19:11:28.965Z,17.19
2023-01-08T19:13:57.143Z,17.19
2023-01-08T19:16:25.432Z,17.18
2023-01-08T19:18:53.293Z,17.18
2023-01-08T19:21:22.262Z,17.18
2023-01-08T19:23:49.799Z,17.18
2023-01-08T19:26:17.789Z,17.15
2023-01-08T19:28:46.065Z,17.16
2023-01-08T19:31:16.684Z,17.15
2023-01-08T19:33:46.293Z,17.15
2023-01-08T19:36:18.597Z,17.16
2023-01-08T19:38:45.985Z,17.14
2023-01-08T19:41:32.749Z,17.15
2023-01-08T19:44:01.279Z,17.15
2023-01-08T19:46:30.595Z,17.14
2023-01-08T19:48:59.751Z,17.15
2023-01-08T19:51:29.048Z,17.14
2023-01-08T19:53:57.190Z,17.11
2023-01-08T19:56:25.230Z,17.12
2023-01-08T19:58:52.736Z,17.10
2023-01-08T20:01:23.613Z,17.09
2023-01-08T20:03:53.434Z,17.11
2023-01-08T20:06:24.393Z,17.09
2023-01-08T20:08:54.348Z,17.09
2023-01-08T20:11:23.678Z,17.06
2023-01-08T20:13:51.879Z,17.05
2023-01-08T20:16:21.161Z,17.05
2023-01-08T20:18:48.970Z,17.03
2023-01-08T20:21:21.751Z,17.02
2023-01-08T20:23:54.774Z,17.00
2023-01-08T20:26:22.366Z,17.01
2023-01-08T20:28:50.506Z,17.00
2023-01-08T20:31:19.391Z,16.98
2023-01-08T20:33:48.029Z,16.99
2023-01-08T20:36:18.646Z,16.98
2023-01-08T20:38:47.036Z,16.97
2023-01-08T20:41:14.693Z,16.96
2023-01-08T20:43:42.301Z,16.97
2023-01-08T20:46:11.950Z,16.96
2023-01-08T20:48:46.852Z,16.95
2023-01-08T20:51:15.662Z,16.94
2023-01-08T20:53:43.368Z,16.94
2023-01-08T20:56:15.169Z,16.92
2023-01-08T20:58:47.099Z,16.93
2023-01-08T21:01:21.164Z,16.91
2023-01-08T21:03:50.490Z,16.90
2023-01-08T21:06:20.707Z,16.91
2023-01-08T21:08:50.458Z,16.91
2023-01-08T21:11:19.738Z,16.91
2023-01-08T21:13:47.563Z,16.91
2023-01-08T21:16:21.971Z,16.88
2023-01-08T21:18:50.681Z,16.90
2023-01-08T21:21:21.954Z,16.87
2023-01-08T21:23:50.015Z,16.86
2023-01-08T21:26:20.405Z,16.88
2023-01-08T21:28:49.683Z,16.86
2023-01-08T21:31:20.419Z,16.88
2023-01-08T21:33:49.613Z,16.87
2023-01-08T21:36:20.680Z,16.85
2023-01-08T21:38:48.900Z,16.84
2023-01-08T21:41:41.066Z,16.84
2023-01-08T21:44:36.572Z,16.83
2023-01-08T21:47:07.127Z,16.83
2023-01-08T21:49:36.065Z,16.82
2023-01-08T21:52:23.967Z,16.83
2023-01-08T21:54:51.540Z,16.81
2023-01-08T21:57:20.090Z,16.82
2023-01-08T21:59:51.658Z,16.81
2023-01-08T22:02:22.312Z,16.81
2023-01-08T22:04:50.332Z,16.80
2023-01-08T22:07:17.851Z,16.80
2023-01-08T22:09:45.282Z,16.80
2023-01-08T22:12:14.109Z,16.79
2023-01-08T22:14:41.837Z,16.80
2023-01-08T22:17:09.586Z,16.77
2023-01-08T22:19:38.722Z,16.78
2023-01-08T22:22:10.501Z,16.77
2023-01-08T22:24:39.676Z,16.78
2023-01-08T22:27:08.554Z,16.79
2023-01-08T22:29:37.281Z,16.81
2023-01-08T22:32:05.166Z,16.81
2023-01-08T22:34:34.369Z,16.83
2023-01-08T22:37:02.048Z,16.82
2023-01-08T22:39:29.724Z,16.81
2023-01-08T22:41:57.295Z,16.81
2023-01-08T22:44:24.796Z,16.81
2023-01-08T22:46:52.347Z,16.81
2023-01-08T22:49:19.806Z,16.82
2023-01-08T22:51:47.424Z,16.82
2023-01-08T22:54:14.840Z,16.81
2023-01-08T22:56:44.974Z,16.81
2023-01-08T22:59:12.242Z,16.81
2023-01-08T23:01:40.459Z,16.81
2023-01-08T23:04:08.118Z,16.80
2023-01-08T23:06:36.002Z,16.81
2023-01-08T23:09:03.516Z,16.81
2023-01-08T23:11:31.320Z,16.80
2023-01-08T23:14:00.391Z,16.80
2023-01-08T23:16:28.245Z,16.79
2023-01-08T23:18:56.406Z,16.79
2023-01-08T23:21:26.072Z,16.79
2023-01-08T23:23:53.424Z,16.79
2023-01-08T23:26:24.866Z,16.79
2023-01-08T23:28:53.444Z,16.80
2023-01-08T23:31:24.359Z,16.78
2023-01-08T23:33:52.018Z,16.77
2023-01-08T23:36:21.440Z,16.77
2023-01-08T23:38:51.547Z,16.77
2023-01-08T23:41:21.095Z,16.77
2023-01-08T23:43:49.243Z,16.77
2023-01-08T23:46:17.906Z,16.76
2023-01-08T23:48:45.350Z,16.76
2023-01-08T23:51:13.079Z,16.75
2023-01-08T23:53:40.354Z,16.75
2023-01-08T23:56:08.126Z,16.76
2023-01-08T23:58:36.095Z,16.74
